To NAV CANADA Home Page Login to a new session Search on AWWS site Feedback and Comments Disclaimer Vers la page française équivalente Tips FAQ What's new on the site To the Forecasts and Observations / NOTAM section To "File a Flight Plan" website Publications and other links Update of the User's profile FIC Telephone Numbers My Weather Data Folder Route Weather Data Regional Weather Data Local Weather Data To the Forecasts and Observations / NOTAM section
Request Generated 04/19/2015 at 03:03:55 UTC . Weather information available at that time is displayed.

METAR/TAF

FORT ST. JOHN/BC    

METAR CYXJ 190300Z 26005KT 15SM SCT082 08/M09 A3024 RMK AC3 SLP267=
METAR CYXJ 190200Z 27004KT 250V320 15SM SCT086 10/M11 A3024 RMK AC3
SLP268=
METAR CYXJ 190100Z 24005KT 210V270 15SM FEW080 11/M10 A3025 RMK AC2
SLP271=

TAF CYXJ 190038Z 1901/1913 VRB03KT P6SM SCT070
FM190700 19007KT P6SM SKC
RMK NXT FCST BY 190700Z=
Your time UTC time
Weather data provided by Environment Canada and NAV CANADA